createdAt,value
2022-08-18T00:01:23.197Z,20.90
2022-08-18T00:03:57.360Z,20.90
2022-08-18T00:06:28.438Z,20.80
2022-08-18T00:08:56.689Z,20.90
2022-08-18T00:11:23.917Z,20.70
2022-08-18T00:13:51.003Z,20.80
2022-08-18T00:16:18.051Z,20.80
2022-08-18T00:18:45.094Z,20.80
2022-08-18T00:21:12.107Z,20.80
2022-08-18T00:23:39.070Z,20.80
2022-08-18T00:26:06.149Z,20.70
2022-08-18T00:28:33.198Z,20.70
2022-08-18T00:31:00.194Z,20.70
2022-08-18T00:33:27.588Z,20.70
2022-08-18T00:35:54.570Z,20.70
2022-08-18T00:38:24.518Z,20.60
2022-08-18T00:40:53.319Z,20.70
2022-08-18T00:43:40.605Z,20.60
2022-08-18T00:46:11.880Z,20.60
2022-08-18T00:48:38.879Z,20.60
2022-08-18T00:51:13.238Z,20.60
2022-08-18T00:53:42.124Z,20.30
2022-08-18T00:56:11.492Z,20.40
2022-08-18T00:58:44.190Z,20.50
2022-08-18T01:01:12.291Z,20.30
2022-08-18T01:03:40.299Z,20.50
2022-08-18T01:06:09.924Z,20.50
2022-08-18T01:08:38.928Z,20.50
2022-08-18T01:11:08.024Z,20.40
2022-08-18T01:13:35.696Z,20.40
2022-08-18T01:16:25.565Z,20.50
2022-08-18T01:19:11.136Z,20.40
2022-08-18T01:21:53.709Z,20.30
2022-08-18T01:24:45.160Z,20.30
2022-08-18T01:27:14.077Z,20.60
2022-08-18T01:29:43.486Z,20.30
2022-08-18T01:32:12.751Z,20.30
2022-08-18T01:34:39.764Z,20.30
2022-08-18T01:37:06.798Z,20.30
2022-08-18T01:41:17.439Z,20.20
2022-08-18T01:42:20.882Z,20.10
2022-08-18T01:44:51.305Z,20.20
2022-08-18T01:47:18.783Z,20.20
2022-08-18T01:49:45.847Z,20.10
2022-08-18T01:52:19.492Z,20.10
2022-08-18T01:54:47.516Z,20.10
2022-08-18T01:57:15.661Z,20.10
2022-08-18T01:59:43.046Z,20.10
2022-08-18T02:02:14.155Z,20.10
2022-08-18T02:04:46.027Z,20.00
2022-08-18T02:07:13.438Z,19.80
2022-08-18T02:09:41.390Z,20.00
2022-08-18T02:12:08.861Z,20.00
2022-08-18T02:14:36.330Z,19.90
2022-08-18T02:17:04.295Z,19.90
2022-08-18T02:19:38.703Z,19.90
2022-08-18T02:22:06.404Z,19.80
2022-08-18T02:24:33.399Z,19.90
2022-08-18T02:27:00.459Z,20.20
2022-08-18T02:29:27.532Z,19.90
2022-08-18T02:31:54.782Z,19.90
2022-08-18T02:34:21.814Z,19.90
2022-08-18T02:36:48.801Z,19.90
2022-08-18T02:39:15.787Z,19.90
2022-08-18T02:41:42.772Z,20.10
2022-08-18T02:44:10.057Z,20.00
2022-08-18T02:46:37.926Z,19.90
2022-08-18T02:49:05.735Z,19.90
2022-08-18T02:51:32.740Z,19.90
2022-08-18T02:53:59.881Z,19.90
2022-08-18T02:56:35.743Z,19.90
2022-08-18T02:59:10.073Z,19.90
2022-08-18T03:01:39.588Z,19.80
2022-08-18T03:04:07.849Z,19.90
2022-08-18T03:06:36.714Z,19.80
2022-08-18T03:09:04.796Z,19.80
2022-08-18T03:11:32.020Z,19.80
2022-08-18T03:14:00.410Z,19.70
2022-08-18T03:16:27.694Z,19.80
2022-08-18T03:18:56.649Z,19.70
2022-08-18T03:21:25.025Z,19.70
2022-08-18T03:24:01.305Z,19.70
2022-08-18T03:26:30.499Z,19.60
2022-08-18T03:28:58.143Z,19.60
2022-08-18T03:31:27.692Z,19.60
2022-08-18T03:33:59.233Z,19.60
2022-08-18T03:36:28.969Z,19.60
2022-08-18T03:38:57.230Z,19.60
2022-08-18T03:41:56.811Z,19.60
2022-08-18T03:44:13.498Z,19.60
2022-08-18T03:46:41.725Z,19.60
2022-08-18T03:49:09.613Z,19.60
2022-08-18T03:51:37.105Z,19.60
2022-08-18T03:54:05.200Z,19.50
2022-08-18T03:56:33.943Z,19.60
2022-08-18T03:59:03.087Z,19.60
2022-08-18T04:01:33.037Z,19.50
2022-08-18T04:04:02.336Z,19.50
2022-08-18T04:06:32.379Z,19.50
2022-08-18T04:09:01.005Z,19.50
2022-08-18T04:11:28.664Z,19.50
2022-08-18T04:14:03.196Z,19.60
2022-08-18T04:16:32.501Z,19.40
2022-08-18T04:19:05.556Z,19.70
2022-08-18T04:21:33.735Z,19.60
2022-08-18T04:24:05.365Z,19.60
2022-08-18T04:26:32.991Z,19.70
2022-08-18T04:29:02.752Z,19.70
2022-08-18T04:31:31.125Z,19.70
2022-08-18T04:33:58.817Z,19.70
2022-08-18T04:36:26.219Z,19.80
2022-08-18T04:38:54.324Z,19.80
2022-08-18T04:41:26.421Z,19.80
2022-08-18T04:43:54.491Z,19.80
2022-08-18T04:46:24.094Z,19.90
2022-08-18T04:48:52.423Z,19.90
2022-08-18T04:52:36.588Z,19.90
2022-08-18T04:54:07.515Z,20.00
2022-08-18T04:56:36.968Z,20.10
2022-08-18T04:59:09.085Z,20.10
2022-08-18T05:01:37.724Z,20.10
2022-08-18T05:04:04.988Z,20.10
2022-08-18T05:06:32.018Z,20.20
2022-08-18T05:09:00.489Z,20.20
2022-08-18T05:11:33.560Z,20.30
2022-08-18T05:14:01.527Z,20.30
2022-08-18T05:16:29.141Z,20.30
2022-08-18T05:18:57.071Z,20.40
2022-08-18T05:21:25.393Z,20.40
2022-08-18T05:23:52.755Z,20.40
2022-08-18T05:26:38.060Z,20.40
2022-08-18T05:29:18.155Z,20.40
2022-08-18T05:31:47.351Z,20.50
2022-08-18T05:34:14.422Z,20.50
2022-08-18T05:36:50.534Z,20.60
2022-08-18T05:39:30.432Z,20.60
2022-08-18T05:42:02.294Z,20.50
2022-08-18T05:44:30.677Z,20.70
2022-08-18T05:47:06.978Z,20.70
2022-08-18T05:49:35.131Z,20.80
2022-08-18T05:52:05.669Z,20.80
2022-08-18T05:55:18.821Z,20.90
2022-08-18T05:58:06.201Z,20.90
2022-08-18T06:00:33.489Z,21.00
2022-08-18T06:03:06.890Z,21.10
2022-08-18T06:05:41.148Z,21.10
2022-08-18T06:08:09.232Z,21.10
2022-08-18T06:10:37.504Z,21.10
2022-08-18T06:13:08.033Z,21.10
2022-08-18T06:15:44.305Z,21.10
2022-08-18T06:18:13.400Z,21.20
2022-08-18T06:20:49.537Z,21.20
2022-08-18T06:23:25.594Z,21.20
2022-08-18T06:25:57.767Z,21.30
2022-08-18T06:28:26.377Z,21.30
2022-08-18T06:31:06.894Z,21.40
2022-08-18T06:33:45.896Z,21.40
2022-08-18T06:36:22.388Z,21.50
2022-08-18T06:38:49.374Z,21.60
2022-08-18T06:41:40.588Z,21.60
2022-08-18T06:44:10.039Z,21.60
2022-08-18T06:46:43.501Z,21.80
2022-08-18T06:49:12.330Z,21.80
2022-08-18T06:51:40.897Z,21.90
2022-08-18T06:54:24.857Z,22.00
2022-08-18T06:56:53.105Z,22.10
2022-08-18T06:59:24.789Z,22.20
2022-08-18T07:01:56.548Z,22.10
2022-08-18T07:04:30.454Z,22.10
2022-08-18T07:06:57.614Z,22.20
2022-08-18T07:09:25.609Z,22.30
2022-08-18T07:12:22.303Z,22.40
2022-08-18T07:14:54.619Z,22.50
2022-08-18T07:17:43.657Z,22.80
2022-08-18T07:20:20.384Z,22.90
2022-08-18T07:23:01.006Z,23.00
2022-08-18T07:25:30.751Z,23.00
2022-08-18T07:27:58.075Z,23.10
2022-08-18T07:30:27.112Z,23.20
2022-08-18T07:32:59.948Z,23.30
2022-08-18T07:35:36.461Z,23.40
2022-08-18T07:38:38.635Z,23.50
2022-08-18T07:41:01.086Z,23.50
2022-08-18T07:43:46.250Z,23.50
2022-08-18T07:46:35.356Z,23.80
2022-08-18T07:49:05.390Z,23.80
2022-08-18T07:51:37.655Z,23.80
2022-08-18T07:54:20.011Z,23.90
2022-08-18T07:57:19.678Z,24.00
2022-08-18T07:59:56.385Z,24.10
2022-08-18T08:02:26.048Z,24.20
2022-08-18T08:04:53.470Z,24.30
2022-08-18T08:07:25.671Z,24.30
2022-08-18T08:09:58.365Z,24.40
2022-08-18T08:12:37.390Z,24.50
2022-08-18T08:15:27.169Z,24.60
2022-08-18T08:18:03.474Z,24.70
2022-08-18T08:20:39.390Z,24.70
2022-08-18T08:23:24.750Z,24.90
2022-08-18T08:26:11.540Z,24.90
2022-08-18T08:28:39.543Z,25.00
2022-08-18T08:31:33.072Z,25.10
2022-08-18T08:34:05.788Z,25.10
2022-08-18T08:36:40.321Z,25.20
2022-08-18T08:39:28.587Z,25.10
2022-08-18T08:42:28.883Z,25.30
2022-08-18T08:45:00.497Z,25.30
2022-08-18T08:47:40.948Z,25.40
2022-08-18T08:50:10.925Z,25.60
2022-08-18T08:52:44.161Z,25.70
2022-08-18T08:55:21.635Z,25.90
2022-08-18T08:58:00.013Z,26.10
2022-08-18T09:03:30.192Z,26.00
2022-08-18T09:06:00.896Z,26.10
2022-08-18T09:08:35.111Z,26.00
2022-08-18T09:11:04.882Z,26.20
2022-08-18T09:13:59.926Z,26.20
2022-08-18T09:16:27.831Z,25.80
2022-08-18T09:19:03.995Z,25.50
2022-08-18T09:21:35.270Z,25.60
2022-08-18T09:24:09.519Z,26.10
2022-08-18T09:26:51.911Z,26.40
2022-08-18T09:29:37.250Z,26.50
2022-08-18T09:32:20.219Z,26.60
2022-08-18T09:34:52.663Z,26.60
2022-08-18T09:37:24.282Z,26.70
2022-08-18T09:40:17.666Z,26.80
2022-08-18T09:42:56.120Z,27.10
2022-08-18T09:45:32.566Z,27.10
2022-08-18T09:48:10.104Z,27.30
2022-08-18T09:50:52.195Z,27.20
2022-08-18T09:53:52.780Z,27.30
2022-08-18T09:56:53.583Z,27.30
2022-08-18T09:59:34.789Z,27.40
2022-08-18T10:02:03.491Z,27.90
2022-08-18T10:04:49.169Z,27.80
2022-08-18T10:07:16.132Z,27.80
2022-08-18T10:09:52.491Z,27.50
2022-08-18T10:12:31.357Z,27.60
2022-08-18T10:15:03.953Z,27.60
2022-08-18T10:17:42.129Z,27.50
2022-08-18T10:20:09.237Z,27.70
2022-08-18T10:22:54.619Z,27.70
2022-08-18T10:25:36.619Z,27.80
2022-08-18T10:28:05.946Z,27.80
2022-08-18T10:30:34.457Z,27.80
2022-08-18T10:35:59.053Z,28.10
2022-08-18T10:41:31.000Z,27.90
2022-08-18T10:43:59.535Z,27.90
2022-08-18T10:46:31.845Z,28.00
2022-08-18T10:49:00.073Z,28.20
2022-08-18T10:54:54.903Z,28.20
2022-08-18T10:57:40.528Z,28.30
2022-08-18T11:00:19.747Z,28.30
2022-08-18T11:02:49.444Z,28.50
2022-08-18T11:05:19.094Z,28.70
2022-08-18T11:07:52.207Z,28.60
2022-08-18T11:10:57.811Z,28.70
2022-08-18T11:13:26.458Z,28.70
2022-08-18T11:16:16.727Z,28.50
2022-08-18T11:18:43.866Z,28.50
2022-08-18T11:21:29.796Z,28.60
2022-08-18T11:24:02.887Z,28.60
2022-08-18T11:26:36.923Z,28.50
2022-08-18T11:29:21.663Z,28.50
2022-08-18T11:34:45.531Z,28.70
2022-08-18T11:37:27.117Z,28.70
2022-08-18T11:39:56.255Z,28.60
2022-08-18T11:42:28.385Z,28.70
2022-08-18T11:45:02.775Z,28.70
2022-08-18T11:47:30.567Z,28.70
2022-08-18T11:50:08.386Z,29.00
2022-08-18T11:52:47.088Z,28.80
2022-08-18T11:55:24.005Z,28.80
2022-08-18T11:57:56.246Z,28.70
2022-08-18T12:00:53.740Z,28.90
2022-08-18T12:03:29.055Z,29.20
2022-08-18T12:05:57.893Z,29.30
2022-08-18T12:08:56.759Z,29.00
2022-08-18T12:11:28.317Z,29.10
2022-08-18T12:14:31.819Z,29.30
2022-08-18T12:16:54.486Z,29.40
2022-08-18T12:19:22.276Z,29.90
2022-08-18T12:21:53.496Z,29.50
2022-08-18T12:24:26.242Z,29.30
2022-08-18T12:26:56.665Z,29.20
2022-08-18T12:29:26.360Z,29.20
2022-08-18T12:31:58.063Z,29.10
2022-08-18T12:34:27.317Z,29.00
2022-08-18T12:36:58.687Z,29.00
2022-08-18T12:39:25.733Z,29.10
2022-08-18T12:41:52.909Z,28.90
2022-08-18T12:44:20.236Z,28.90
2022-08-18T12:46:49.158Z,28.60
2022-08-18T12:49:17.628Z,28.40
2022-08-18T12:51:45.264Z,28.30
2022-08-18T12:54:18.179Z,28.60
2022-08-18T12:56:50.370Z,28.70
2022-08-18T12:59:17.401Z,28.90
2022-08-18T13:01:44.705Z,28.80
2022-08-18T13:04:14.051Z,28.80
2022-08-18T13:06:50.339Z,28.90
2022-08-18T13:09:34.896Z,28.90
2022-08-18T13:12:16.152Z,28.70
2022-08-18T13:14:43.880Z,28.80
2022-08-18T13:17:32.639Z,28.90
2022-08-18T13:19:59.666Z,29.00
2022-08-18T13:22:32.440Z,28.90
2022-08-18T13:25:05.374Z,29.00
2022-08-18T13:27:35.659Z,29.00
2022-08-18T13:30:29.515Z,29.00
2022-08-18T13:33:00.324Z,29.00
2022-08-18T13:35:38.419Z,29.00
2022-08-18T13:38:20.810Z,29.10
2022-08-18T13:40:57.726Z,29.10
2022-08-18T13:43:30.672Z,29.20
2022-08-18T13:45:57.980Z,29.40
2022-08-18T13:48:25.777Z,29.40
2022-08-18T13:50:53.968Z,29.40
2022-08-18T13:53:24.723Z,29.40
2022-08-18T13:55:53.711Z,29.10
2022-08-18T13:58:22.005Z,28.80
2022-08-18T14:00:52.491Z,28.60
2022-08-18T14:03:42.283Z,28.40
2022-08-18T14:06:12.971Z,28.40
2022-08-18T14:08:40.922Z,28.90
2022-08-18T14:11:08.564Z,29.20
2022-08-18T14:13:38.396Z,29.60
2022-08-18T14:16:11.271Z,30.00
2022-08-18T14:19:09.970Z,30.30
2022-08-18T14:22:06.216Z,30.30
2022-08-18T14:24:52.543Z,30.20
2022-08-18T14:27:20.627Z,30.30
2022-08-18T14:29:49.743Z,30.40
2022-08-18T14:32:29.494Z,30.40
2022-08-18T14:35:00.344Z,30.30
2022-08-18T14:37:29.118Z,30.20
2022-08-18T14:39:56.332Z,29.80
2022-08-18T14:42:32.778Z,29.50
2022-08-18T14:47:59.982Z,29.30
2022-08-18T14:50:27.132Z,29.00
2022-08-18T14:52:54.185Z,29.10
2022-08-18T14:55:22.246Z,29.10
2022-08-18T14:57:50.216Z,29.10
2022-08-18T15:00:20.913Z,29.00
2022-08-18T15:02:49.903Z,28.90
2022-08-18T15:05:19.815Z,28.90
2022-08-18T15:07:52.470Z,29.10
2022-08-18T15:10:23.671Z,29.00
2022-08-18T15:12:55.450Z,28.70
2022-08-18T15:15:22.835Z,28.90
2022-08-18T15:17:53.018Z,28.70
2022-08-18T15:20:23.851Z,28.60
2022-08-18T15:23:14.679Z,28.50
2022-08-18T15:25:51.067Z,28.80
2022-08-18T15:28:20.107Z,28.50
2022-08-18T15:30:51.150Z,28.60
2022-08-18T15:33:23.620Z,28.50
2022-08-18T15:35:51.421Z,28.30
2022-08-18T15:38:20.209Z,28.20
2022-08-18T15:40:49.261Z,28.10
2022-08-18T15:43:25.411Z,28.10
2022-08-18T15:45:58.266Z,28.10
2022-08-18T15:48:25.981Z,28.10
2022-08-18T15:50:53.062Z,28.20
2022-08-18T15:53:21.829Z,28.20
2022-08-18T15:58:47.836Z,28.10
2022-08-18T16:01:29.908Z,27.90
2022-08-18T16:04:01.440Z,27.70
2022-08-18T16:06:32.557Z,27.60
2022-08-18T16:09:00.502Z,27.60
2022-08-18T16:11:29.545Z,27.70
2022-08-18T16:13:59.081Z,27.60
2022-08-18T16:16:29.150Z,27.60
2022-08-18T16:19:04.996Z,27.60
2022-08-18T16:21:32.018Z,27.60
2022-08-18T16:24:00.098Z,27.60
2022-08-18T16:26:27.167Z,27.60
2022-08-18T16:28:54.253Z,27.50
2022-08-18T16:31:26.338Z,27.40
2022-08-18T16:33:54.016Z,27.60
2022-08-18T16:36:21.875Z,27.40
2022-08-18T16:38:48.876Z,27.40
2022-08-18T16:41:20.956Z,27.30
2022-08-18T16:43:48.295Z,27.30
2022-08-18T16:46:18.989Z,27.40
2022-08-18T16:48:46.195Z,27.40
2022-08-18T16:51:14.543Z,26.60
2022-08-18T16:53:41.683Z,26.90
2022-08-18T16:56:19.053Z,26.80
2022-08-18T16:59:05.459Z,26.50
2022-08-18T17:01:53.563Z,26.30
2022-08-18T17:04:23.531Z,26.40
2022-08-18T17:06:51.105Z,26.30
2022-08-18T17:09:19.044Z,26.10
2022-08-18T17:11:51.390Z,26.00
2022-08-18T17:21:37.569Z,25.70
2022-08-18T17:24:11.494Z,25.60
2022-08-18T17:27:25.842Z,25.60
2022-08-18T17:30:14.150Z,25.40
2022-08-18T17:33:02.556Z,25.50
2022-08-18T17:35:54.483Z,25.50
2022-08-18T17:38:27.414Z,25.40
2022-08-18T17:40:58.431Z,25.40
2022-08-18T17:43:33.842Z,25.30
2022-08-18T17:46:06.187Z,25.30
2022-08-18T17:48:56.505Z,25.30
2022-08-18T17:51:48.987Z,25.20
2022-08-18T18:00:53.433Z,25.10
2022-08-18T18:03:49.381Z,25.30
2022-08-18T18:11:04.874Z,25.30
2022-08-18T18:13:48.940Z,24.90
2022-08-18T18:30:15.444Z,24.80
2022-08-18T18:39:12.658Z,24.80
2022-08-18T18:41:48.646Z,24.90
2022-08-18T18:48:48.133Z,24.80
2022-08-18T19:01:29.678Z,24.70
2022-08-18T19:08:19.456Z,24.60
2022-08-18T19:11:17.705Z,24.60
2022-08-18T19:14:02.088Z,24.40
2022-08-18T19:16:47.872Z,24.70
2022-08-18T19:19:37.138Z,25.00
2022-08-18T19:25:26.465Z,23.40
2022-08-18T19:35:12.045Z,24.90
2022-08-18T19:41:10.983Z,24.80
2022-08-18T19:47:27.969Z,23.20
2022-08-18T19:53:41.491Z,24.80
2022-08-18T19:56:21.497Z,24.80
2022-08-18T19:59:19.390Z,25.40
2022-08-18T20:02:35.454Z,24.80
2022-08-18T20:05:25.500Z,24.60
2022-08-18T20:08:41.699Z,23.80
2022-08-18T20:17:30.938Z,24.80
2022-08-18T20:20:07.659Z,25.90
2022-08-18T20:22:44.506Z,24.70
2022-08-18T20:28:46.546Z,24.60
2022-08-18T20:31:36.068Z,24.60
2022-08-18T20:34:14.303Z,24.60
2022-08-18T20:37:37.760Z,24.50
2022-08-18T20:40:11.096Z,23.00
2022-08-18T20:46:17.397Z,24.40
2022-08-18T21:07:45.775Z,24.20
2022-08-18T21:14:03.996Z,24.20
2022-08-18T21:20:11.613Z,24.10
2022-08-18T21:22:51.370Z,24.20
2022-08-18T21:25:39.830Z,24.00
2022-08-18T21:32:09.382Z,24.70
2022-08-18T21:34:52.372Z,24.10
2022-08-18T21:40:41.904Z,24.20
2022-08-18T21:55:36.124Z,24.20
2022-08-18T22:05:01.422Z,24.20
2022-08-18T22:07:35.572Z,24.20
2022-08-18T22:14:22.186Z,24.20
